Tununak, Alaska
Current Conditions -  °F | °C
As of 1:56 PM on Friday 19 Dec 2014 (Local Time) from PAOO Reporting Station
Clear Clear  
Wind Chill: 14°   Ceiling: Unl
Heat Index: 25°   Visibility: 10mi
Dew Point: 12°   Wind: 13mph
Humidity: 57%   Direction: 60°ENE
Pressure: 29.12"   Gusts: 18mph
Location:  60.58°N, 165.25°W
Report Text: PAOO 192256Z AUTO 06011G16KT 10SM CLR M04/M11 A2912 RMK AO2 TSNO T10381111 SLP864 $
Loading
Personal Weather Stations






























Interactive Weather Map New forecast layout! Learn more

10-Day Weather Forecast

Advertisements
Track Severe Weather on mobile